sensor_id;sensor_type;location;lat;lon;timestamp;pressure;altitude;pressure_sealevel;temperature;humidity
61488;BME280;47351;53.326;-6.298;2023-02-15T00:01:05;101560.20;;;9.82;49.85
61488;BME280;47351;53.326;-6.298;2023-02-15T00:04:03;101558.27;;;9.82;49.80
61488;BME280;47351;53.326;-6.298;2023-02-15T00:07:15;101558.85;;;9.81;49.88
61488;BME280;47351;53.326;-6.298;2023-02-15T00:10:19;101567.05;;;9.81;50.21
61488;BME280;47351;53.326;-6.298;2023-02-15T00:13:20;101565.84;;;9.83;50.26
61488;BME280;47351;53.326;-6.298;2023-02-15T00:16:17;101553.33;;;9.85;50.48
61488;BME280;47351;53.326;-6.298;2023-02-15T00:19:19;101548.73;;;9.85;50.66
61488;BME280;47351;53.326;-6.298;2023-02-15T00:22:08;101547.02;;;9.84;50.81
61488;BME280;47351;53.326;-6.298;2023-02-15T00:25:06;101543.70;;;9.83;50.86
61488;BME280;47351;53.326;-6.298;2023-02-15T00:28:09;101546.99;;;9.82;51.01
61488;BME280;47351;53.326;-6.298;2023-02-15T00:31:03;101546.46;;;9.82;50.93
61488;BME280;47351;53.326;-6.298;2023-02-15T00:34:12;101544.93;;;9.85;50.86
61488;BME280;47351;53.326;-6.298;2023-02-15T00:37:22;101539.58;;;9.88;50.87
61488;BME280;47351;53.326;-6.298;2023-02-15T00:40:13;101535.68;;;9.89;50.84
61488;BME280;47351;53.326;-6.298;2023-02-15T00:43:16;101529.25;;;9.91;50.61
61488;BME280;47351;53.326;-6.298;2023-02-15T00:46:25;101516.67;;;9.94;50.55
61488;BME280;47351;53.326;-6.298;2023-02-15T00:49:18;101515.98;;;9.96;51.11
61488;BME280;47351;53.326;-6.298;2023-02-15T00:52:27;101511.86;;;9.99;51.82
61488;BME280;47351;53.326;-6.298;2023-02-15T00:55:36;101505.64;;;10.01;52.07
61488;BME280;47351;53.326;-6.298;2023-02-15T00:58:45;101508.29;;;10.01;52.26
61488;BME280;47351;53.326;-6.298;2023-02-15T01:01:54;101505.77;;;9.99;52.59
61488;BME280;47351;53.326;-6.298;2023-02-15T01:05:03;101503.05;;;10.00;52.60
61488;BME280;47351;53.326;-6.298;2023-02-15T01:08:04;101500.77;;;10.01;52.68
61488;BME280;47351;53.326;-6.298;2023-02-15T01:11:13;101511.63;;;10.03;52.69
61488;BME280;47351;53.326;-6.298;2023-02-15T01:14:11;101510.65;;;10.02;52.82
61488;BME280;47351;53.326;-6.298;2023-02-15T01:17:21;101507.61;;;10.00;52.82
61488;BME280;47351;53.326;-6.298;2023-02-15T01:20:20;101504.81;;;9.97;53.01
61488;BME280;47351;53.326;-6.298;2023-02-15T01:23:30;101493.31;;;9.94;53.12
61488;BME280;47351;53.326;-6.298;2023-02-15T01:26:39;101483.34;;;9.91;53.61
61488;BME280;47351;53.326;-6.298;2023-02-15T01:29:47;101478.98;;;9.87;53.97
61488;BME280;47351;53.326;-6.298;2023-02-15T01:32:39;101477.86;;;9.84;54.55
61488;BME280;47351;53.326;-6.298;2023-02-15T01:35:31;101468.03;;;9.82;55.13
61488;BME280;47351;53.326;-6.298;2023-02-15T01:38:34;101464.64;;;9.80;55.77
61488;BME280;47351;53.326;-6.298;2023-02-15T01:41:43;101467.03;;;9.77;56.21
61488;BME280;47351;53.326;-6.298;2023-02-15T01:44:53;101464.00;;;9.73;56.59
61488;BME280;47351;53.326;-6.298;2023-02-15T01:48:04;101463.85;;;9.70;56.86
61488;BME280;47351;53.326;-6.298;2023-02-15T01:51:00;101457.80;;;9.68;57.05
61488;BME280;47351;53.326;-6.298;2023-02-15T01:54:11;101447.84;;;9.68;56.94
61488;BME280;47351;53.326;-6.298;2023-02-15T01:57:04;101437.44;;;9.69;56.92
61488;BME280;47351;53.326;-6.298;2023-02-15T02:00:14;101428.65;;;9.71;57.04
61488;BME280;47351;53.326;-6.298;2023-02-15T02:03:26;101423.41;;;9.74;57.12
61488;BME280;47351;53.326;-6.298;2023-02-15T02:06:39;101423.01;;;9.77;57.05
61488;BME280;47351;53.326;-6.298;2023-02-15T02:09:49;101414.80;;;9.77;57.40
61488;BME280;47351;53.326;-6.298;2023-02-15T02:12:49;101409.15;;;9.74;57.68
61488;BME280;47351;53.326;-6.298;2023-02-15T02:16:00;101411.27;;;9.70;58.10
61488;BME280;47351;53.326;-6.298;2023-02-15T02:19:19;101407.66;;;9.67;58.91
61488;BME280;47351;53.326;-6.298;2023-02-15T02:28:57;101410.63;;;9.51;60.53
61488;BME280;47351;53.326;-6.298;2023-02-15T02:32:10;101412.08;;;9.47;61.11
61488;BME280;47351;53.326;-6.298;2023-02-15T02:35:14;101397.00;;;9.42;61.39
61488;BME280;47351;53.326;-6.298;2023-02-15T02:38:27;101391.76;;;9.39;61.70
61488;BME280;47351;53.326;-6.298;2023-02-15T02:41:38;101373.85;;;9.36;62.21
61488;BME280;47351;53.326;-6.298;2023-02-15T02:44:38;101357.61;;;9.33;62.65
61488;BME280;47351;53.326;-6.298;2023-02-15T02:47:45;101350.04;;;9.29;62.84
61488;BME280;47351;53.326;-6.298;2023-02-15T02:50:44;101347.96;;;9.26;63.09
61488;BME280;47351;53.326;-6.298;2023-02-15T02:53:53;101346.48;;;9.25;63.27
61488;BME280;47351;53.326;-6.298;2023-02-15T02:56:55;101349.92;;;9.24;63.42
61488;BME280;47351;53.326;-6.298;2023-02-15T02:59:50;101343.20;;;9.24;63.55
61488;BME280;47351;53.326;-6.298;2023-02-15T03:02:58;101337.56;;;9.23;63.66
61488;BME280;47351;53.326;-6.298;2023-02-15T03:06:05;101336.02;;;9.22;63.91
61488;BME280;47351;53.326;-6.298;2023-02-15T03:09:15;101328.45;;;9.21;64.26
61488;BME280;47351;53.326;-6.298;2023-02-15T03:12:27;101319.64;;;9.26;64.74
61488;BME280;47351;53.326;-6.298;2023-02-15T03:15:30;101324.08;;;9.33;64.85
61488;BME280;47351;53.326;-6.298;2023-02-15T03:18:46;101311.02;;;9.39;65.07
61488;BME280;47351;53.326;-6.298;2023-02-15T03:22:01;101302.11;;;9.51;65.38
61488;BME280;47351;53.326;-6.298;2023-02-15T03:25:17;101298.93;;;9.61;65.05
61488;BME280;47351;53.326;-6.298;2023-02-15T03:28:28;101306.88;;;9.68;65.05
61488;BME280;47351;53.326;-6.298;2023-02-15T03:31:41;101304.78;;;9.73;65.04
61488;BME280;47351;53.326;-6.298;2023-02-15T03:34:42;101295.05;;;9.79;65.32
61488;BME280;47351;53.326;-6.298;2023-02-15T03:37:41;101285.60;;;9.85;65.12
61488;BME280;47351;53.326;-6.298;2023-02-15T03:40:34;101277.90;;;9.89;65.12
61488;BME280;47351;53.326;-6.298;2023-02-15T03:43:48;101273.05;;;9.93;65.20
61488;BME280;47351;53.326;-6.298;2023-02-15T03:46:59;101272.14;;;9.95;65.24
61488;BME280;47351;53.326;-6.298;2023-02-15T03:50:10;101268.14;;;9.96;65.16
61488;BME280;47351;53.326;-6.298;2023-02-15T03:53:36;101267.59;;;9.96;65.28
61488;BME280;47351;53.326;-6.298;2023-02-15T03:56:46;101264.11;;;9.97;65.65
61488;BME280;47351;53.326;-6.298;2023-02-15T04:00:16;101263.34;;;9.98;65.56
61488;BME280;47351;53.326;-6.298;2023-02-15T04:03:38;101264.69;;;9.97;65.46
61488;BME280;47351;53.326;-6.298;2023-02-15T04:06:29;101262.91;;;9.95;65.68
61488;BME280;47351;53.326;-6.298;2023-02-15T04:09:38;101270.20;;;9.93;65.83
61488;BME280;47351;53.326;-6.298;2023-02-15T04:12:57;101274.02;;;9.90;66.01
61488;BME280;47351;53.326;-6.298;2023-02-15T04:15:50;101276.29;;;9.89;66.37
61488;BME280;47351;53.326;-6.298;2023-02-15T04:19:11;101271.21;;;9.89;66.60
61488;BME280;47351;53.326;-6.298;2023-02-15T04:22:38;101266.27;;;9.91;66.82
61488;BME280;47351;53.326;-6.298;2023-02-15T04:25:58;101263.30;;;9.96;67.22
61488;BME280;47351;53.326;-6.298;2023-02-15T04:28:59;101257.53;;;10.01;67.25
61488;BME280;47351;53.326;-6.298;2023-02-15T04:32:08;101254.27;;;10.05;67.32
61488;BME280;47351;53.326;-6.298;2023-02-15T04:35:17;101249.09;;;10.09;67.27
61488;BME280;47351;53.326;-6.298;2023-02-15T04:38:14;101238.75;;;10.13;67.20
61488;BME280;47351;53.326;-6.298;2023-02-15T04:41:16;101236.95;;;10.17;67.14
61488;BME280;47351;53.326;-6.298;2023-02-15T04:44:25;101228.04;;;10.21;67.23
61488;BME280;47351;53.326;-6.298;2023-02-15T04:47:26;101226.04;;;10.23;67.17
61488;BME280;47351;53.326;-6.298;2023-02-15T04:50:35;101220.26;;;10.24;67.18
61488;BME280;47351;53.326;-6.298;2023-02-15T04:53:36;101215.30;;;10.24;67.33
61488;BME280;47351;53.326;-6.298;2023-02-15T04:56:34;101200.52;;;10.24;67.40
61488;BME280;47351;53.326;-6.298;2023-02-15T04:59:28;101195.05;;;10.23;67.61
61488;BME280;47351;53.326;-6.298;2023-02-15T05:02:27;101198.86;;;10.22;68.04
61488;BME280;47351;53.326;-6.298;2023-02-15T05:05:26;101198.63;;;10.23;68.30
61488;BME280;47351;53.326;-6.298;2023-02-15T05:08:15;101201.34;;;10.22;68.59
61488;BME280;47351;53.326;-6.298;2023-02-15T05:11:24;101220.06;;;10.22;68.86
61488;BME280;47351;53.326;-6.298;2023-02-15T05:14:13;101296.20;;;10.23;69.93
61488;BME280;47351;53.326;-6.298;2023-02-15T05:17:02;101317.18;;;10.04;69.18
61488;BME280;47351;53.326;-6.298;2023-02-15T05:20:11;101334.73;;;9.57;68.87
61488;BME280;47351;53.326;-6.298;2023-02-15T05:23:05;101357.67;;;9.17;69.87
61488;BME280;47351;53.326;-6.298;2023-02-15T05:26:07;101351.84;;;8.80;71.49
61488;BME280;47351;53.326;-6.298;2023-02-15T05:29:28;101372.61;;;8.46;72.22
61488;BME280;47351;53.326;-6.298;2023-02-15T05:32:30;101382.09;;;8.24;73.20
61488;BME280;47351;53.326;-6.298;2023-02-15T05:35:39;101390.63;;;8.02;73.93
61488;BME280;47351;53.326;-6.298;2023-02-15T05:38:30;101386.42;;;7.86;74.62
61488;BME280;47351;53.326;-6.298;2023-02-15T05:41:38;101384.15;;;7.70;75.12
61488;BME280;47351;53.326;-6.298;2023-02-15T05:44:29;101380.70;;;7.58;75.58
61488;BME280;47351;53.326;-6.298;2023-02-15T05:47:38;101381.48;;;7.48;76.21
61488;BME280;47351;53.326;-6.298;2023-02-15T05:50:29;101382.98;;;7.38;76.70
61488;BME280;47351;53.326;-6.298;2023-02-15T05:53:38;101387.10;;;7.29;77.24
61488;BME280;47351;53.326;-6.298;2023-02-15T05:56:47;101393.31;;;7.19;77.74
61488;BME280;47351;53.326;-6.298;2023-02-15T05:59:36;101401.45;;;7.13;78.21
61488;BME280;47351;53.326;-6.298;2023-02-15T06:02:25;101405.23;;;7.10;78.81
61488;BME280;47351;53.326;-6.298;2023-02-15T06:05:34;101410.38;;;7.06;78.87
61488;BME280;47351;53.326;-6.298;2023-02-15T06:08:22;101411.09;;;7.01;79.26
61488;BME280;47351;53.326;-6.298;2023-02-15T06:11:11;101416.79;;;6.96;79.54
61488;BME280;47351;53.326;-6.298;2023-02-15T06:14:02;101428.18;;;6.91;79.78
61488;BME280;47351;53.326;-6.298;2023-02-15T06:16:50;101432.02;;;6.84;79.93
61488;BME280;47351;53.326;-6.298;2023-02-15T06:19:49;101428.17;;;6.79;80.21
61488;BME280;47351;53.326;-6.298;2023-02-15T06:22:58;101421.09;;;6.77;80.60
61488;BME280;47351;53.326;-6.298;2023-02-15T06:25:46;101428.45;;;6.76;80.89
61488;BME280;47351;53.326;-6.298;2023-02-15T06:28:37;101437.84;;;6.76;81.25
61488;BME280;47351;53.326;-6.298;2023-02-15T06:31:33;101421.12;;;6.76;81.53
61488;BME280;47351;53.326;-6.298;2023-02-15T06:34:35;101423.44;;;6.76;81.77
61488;BME280;47351;53.326;-6.298;2023-02-15T06:37:26;101428.70;;;6.74;81.89
61488;BME280;47351;53.326;-6.298;2023-02-15T06:40:27;101436.17;;;6.72;82.16
61488;BME280;47351;53.326;-6.298;2023-02-15T06:43:16;101432.00;;;6.68;82.35
61488;BME280;47351;53.326;-6.298;2023-02-15T06:46:18;101426.70;;;6.63;82.58
61488;BME280;47351;53.326;-6.298;2023-02-15T06:49:15;101429.30;;;6.59;82.75
61488;BME280;47351;53.326;-6.298;2023-02-15T06:52:16;101434.38;;;6.56;82.91
61488;BME280;47351;53.326;-6.298;2023-02-15T06:55:08;101441.36;;;6.50;83.10
61488;BME280;47351;53.326;-6.298;2023-02-15T06:58:04;101446.92;;;6.46;83.32
61488;BME280;47351;53.326;-6.298;2023-02-15T07:01:07;101448.41;;;6.45;83.71
61488;BME280;47351;53.326;-6.298;2023-02-15T07:04:16;101445.35;;;6.44;83.93
61488;BME280;47351;53.326;-6.298;2023-02-15T07:07:08;101446.34;;;6.42;84.12
61488;BME280;47351;53.326;-6.298;2023-02-15T07:10:00;101445.91;;;6.41;84.31
61488;BME280;47351;53.326;-6.298;2023-02-15T07:12:51;101441.75;;;6.40;84.44
61488;BME280;47351;53.326;-6.298;2023-02-15T07:15:43;101438.21;;;6.37;84.54
61488;BME280;47351;53.326;-6.298;2023-02-15T07:18:32;101438.58;;;6.35;84.63
61488;BME280;47351;53.326;-6.298;2023-02-15T07:21:23;101437.25;;;6.31;84.78
61488;BME280;47351;53.326;-6.298;2023-02-15T07:24:22;101430.33;;;6.29;84.95
61488;BME280;47351;53.326;-6.298;2023-02-15T07:27:25;101426.80;;;6.26;85.00
61488;BME280;47351;53.326;-6.298;2023-02-15T07:30:24;101419.85;;;6.24;85.16
61488;BME280;47351;53.326;-6.298;2023-02-15T07:33:24;101410.34;;;6.26;85.33
61488;BME280;47351;53.326;-6.298;2023-02-15T07:36:27;101403.44;;;6.28;85.60
61488;BME280;47351;53.326;-6.298;2023-02-15T07:39:18;101391.74;;;6.30;85.65
61488;BME280;47351;53.326;-6.298;2023-02-15T07:42:09;101385.91;;;6.33;85.77
61488;BME280;47351;53.326;-6.298;2023-02-15T07:45:10;101390.02;;;6.37;86.02
61488;BME280;47351;53.326;-6.298;2023-02-15T07:48:02;101382.30;;;6.41;85.96
61488;BME280;47351;53.326;-6.298;2023-02-15T07:50:50;101376.46;;;6.43;85.86
61488;BME280;47351;53.326;-6.298;2023-02-15T07:53:39;101376.31;;;6.45;85.82
61488;BME280;47351;53.326;-6.298;2023-02-15T07:56:30;101377.14;;;6.45;85.75
61488;BME280;47351;53.326;-6.298;2023-02-15T07:59:41;101373.01;;;6.46;85.67
61488;BME280;47351;53.326;-6.298;2023-02-15T08:02:47;101373.40;;;6.48;85.83
61488;BME280;47351;53.326;-6.298;2023-02-15T08:06:10;101380.14;;;6.48;85.89
61488;BME280;47351;53.326;-6.298;2023-02-15T08:09:09;101390.50;;;6.47;85.83
61488;BME280;47351;53.326;-6.298;2023-02-15T08:11:59;101388.60;;;6.46;85.68
61488;BME280;47351;53.326;-6.298;2023-02-15T08:15:00;101387.15;;;6.47;85.67
61488;BME280;47351;53.326;-6.298;2023-02-15T08:18:09;101389.04;;;6.45;85.53
61488;BME280;47351;53.326;-6.298;2023-02-15T08:21:18;101391.77;;;6.44;85.38
61488;BME280;47351;53.326;-6.298;2023-02-15T08:24:18;101397.69;;;6.46;85.35
61488;BME280;47351;53.326;-6.298;2023-02-15T08:27:27;101398.94;;;6.48;85.29
61488;BME280;47351;53.326;-6.298;2023-02-15T08:30:24;101404.11;;;6.53;85.42
61488;BME280;47351;53.326;-6.298;2023-02-15T08:33:33;101407.45;;;6.58;85.49
61488;BME280;47351;53.326;-6.298;2023-02-15T08:36:32;101407.80;;;6.63;85.40
61488;BME280;47351;53.326;-6.298;2023-02-15T08:39:24;101406.14;;;6.68;85.29
61488;BME280;47351;53.326;-6.298;2023-02-15T08:42:15;101407.86;;;6.73;85.23
61488;BME280;47351;53.326;-6.298;2023-02-15T08:45:24;101416.44;;;6.77;85.09
61488;BME280;47351;53.326;-6.298;2023-02-15T08:48:23;101418.89;;;6.82;85.06
61488;BME280;47351;53.326;-6.298;2023-02-15T08:51:14;101417.91;;;6.86;84.87
61488;BME280;47351;53.326;-6.298;2023-02-15T08:54:13;101416.52;;;6.88;84.60
61488;BME280;47351;53.326;-6.298;2023-02-15T08:57:02;101419.08;;;6.89;84.36
61488;BME280;47351;53.326;-6.298;2023-02-15T08:59:50;101425.05;;;6.92;84.15
61488;BME280;47351;53.326;-6.298;2023-02-15T09:02:39;101423.77;;;6.98;84.01
61488;BME280;47351;53.326;-6.298;2023-02-15T09:05:30;101430.55;;;7.02;83.86
61488;BME280;47351;53.326;-6.298;2023-02-15T09:08:21;101433.78;;;7.06;83.70
61488;BME280;47351;53.326;-6.298;2023-02-15T09:11:10;101435.28;;;7.10;83.56
61488;BME280;47351;53.326;-6.298;2023-02-15T09:14:00;101441.80;;;7.12;83.42
61488;BME280;47351;53.326;-6.298;2023-02-15T09:16:49;101436.56;;;7.13;83.22
61488;BME280;47351;53.326;-6.298;2023-02-15T09:19:39;101439.34;;;7.14;83.10
61488;BME280;47351;53.326;-6.298;2023-02-15T09:22:31;101444.45;;;7.15;82.91
61488;BME280;47351;53.326;-6.298;2023-02-15T09:25:22;101440.50;;;7.15;82.67
61488;BME280;47351;53.326;-6.298;2023-02-15T09:28:13;101445.91;;;7.16;82.53
61488;BME280;47351;53.326;-6.298;2023-02-15T09:31:06;101448.09;;;7.18;82.45
61488;BME280;47351;53.326;-6.298;2023-02-15T09:33:55;101448.66;;;7.15;82.44
61488;BME280;47351;53.326;-6.298;2023-02-15T09:36:56;101451.22;;;7.12;82.58
61488;BME280;47351;53.326;-6.298;2023-02-15T09:39:48;101448.32;;;7.10;82.59
61488;BME280;47351;53.326;-6.298;2023-02-15T09:42:53;101448.55;;;7.12;82.66
61488;BME280;47351;53.326;-6.298;2023-02-15T09:45:52;101444.58;;;7.18;82.72
61488;BME280;47351;53.326;-6.298;2023-02-15T09:48:55;101446.66;;;7.25;82.75
61488;BME280;47351;53.326;-6.298;2023-02-15T09:52:08;101450.63;;;7.33;82.70
61488;BME280;47351;53.326;-6.298;2023-02-15T09:55:14;101447.33;;;7.42;82.53
61488;BME280;47351;53.326;-6.298;2023-02-15T09:58:20;101453.23;;;7.53;82.18
61488;BME280;47351;53.326;-6.298;2023-02-15T10:01:17;101459.28;;;7.68;81.69
61488;BME280;47351;53.326;-6.298;2023-02-15T10:04:32;101459.32;;;7.88;81.38
61488;BME280;47351;53.326;-6.298;2023-02-15T10:07:46;101459.84;;;8.13;80.82
61488;BME280;47351;53.326;-6.298;2023-02-15T10:10:42;101460.16;;;8.30;80.24
61488;BME280;47351;53.326;-6.298;2023-02-15T10:13:46;101462.70;;;8.41;79.94
61488;BME280;47351;53.326;-6.298;2023-02-15T10:16:40;101462.44;;;8.44;79.58
61488;BME280;47351;53.326;-6.298;2023-02-15T10:19:51;101467.05;;;8.43;79.41
61488;BME280;47351;53.326;-6.298;2023-02-15T10:22:52;101464.45;;;8.40;79.28
61488;BME280;47351;53.326;-6.298;2023-02-15T10:25:46;101467.89;;;8.43;79.05
61488;BME280;47351;53.326;-6.298;2023-02-15T10:28:42;101470.52;;;8.58;78.89
61488;BME280;47351;53.326;-6.298;2023-02-15T10:31:34;101473.28;;;8.85;78.31
61488;BME280;47351;53.326;-6.298;2023-02-15T10:34:26;101473.36;;;9.16;77.38
61488;BME280;47351;53.326;-6.298;2023-02-15T10:40:51;101469.70;;;9.77;75.86
61488;BME280;47351;53.326;-6.298;2023-02-15T10:43:49;101462.62;;;10.05;75.17
61488;BME280;47351;53.326;-6.298;2023-02-15T10:47:02;101460.48;;;10.31;74.70
61488;BME280;47351;53.326;-6.298;2023-02-15T10:50:15;101459.94;;;10.51;73.79
61488;BME280;47351;53.326;-6.298;2023-02-15T10:53:10;101456.73;;;10.60;72.63
61488;BME280;47351;53.326;-6.298;2023-02-15T10:56:04;101457.54;;;10.70;72.27
61488;BME280;47351;53.326;-6.298;2023-02-15T10:59:04;101455.13;;;10.76;71.92
61488;BME280;47351;53.326;-6.298;2023-02-15T11:02:15;101461.10;;;10.83;71.97
61488;BME280;47351;53.326;-6.298;2023-02-15T11:05:29;101473.82;;;10.84;71.06
61488;BME280;47351;53.326;-6.298;2023-02-15T11:08:20;101471.48;;;10.75;70.65
61488;BME280;47351;53.326;-6.298;2023-02-15T11:11:12;101469.11;;;10.64;70.73
61488;BME280;47351;53.326;-6.298;2023-02-15T11:14:04;101471.55;;;10.55;70.73
61488;BME280;47351;53.326;-6.298;2023-02-15T11:16:57;101470.41;;;10.46;70.81
61488;BME280;47351;53.326;-6.298;2023-02-15T11:20:02;101469.28;;;10.38;71.15
61488;BME280;47351;53.326;-6.298;2023-02-15T11:23:12;101476.79;;;10.36;71.49
61488;BME280;47351;53.326;-6.298;2023-02-15T11:26:03;101486.00;;;10.37;71.44
61488;BME280;47351;53.326;-6.298;2023-02-15T11:28:56;101486.46;;;10.38;71.17
61488;BME280;47351;53.326;-6.298;2023-02-15T11:31:53;101484.89;;;10.39;71.30
61488;BME280;47351;53.326;-6.298;2023-02-15T11:34:45;101483.42;;;10.42;71.31
61488;BME280;47351;53.326;-6.298;2023-02-15T11:37:39;101486.27;;;10.42;71.26
61488;BME280;47351;53.326;-6.298;2023-02-15T11:40:40;101487.59;;;10.43;71.02
61488;BME280;47351;53.326;-6.298;2023-02-15T11:43:32;101491.52;;;10.43;70.76
61488;BME280;47351;53.326;-6.298;2023-02-15T11:46:24;101490.52;;;10.46;70.91
61488;BME280;47351;53.326;-6.298;2023-02-15T11:49:17;101486.11;;;10.54;70.96
61488;BME280;47351;53.326;-6.298;2023-02-15T11:52:10;101487.98;;;10.59;70.75
61488;BME280;47351;53.326;-6.298;2023-02-15T11:55:00;101493.88;;;10.56;70.30
61488;BME280;47351;53.326;-6.298;2023-02-15T11:58:12;101497.95;;;10.49;70.21
61488;BME280;47351;53.326;-6.298;2023-02-15T12:01:15;101502.63;;;10.45;70.31
61488;BME280;47351;53.326;-6.298;2023-02-15T12:04:28;101506.27;;;10.48;70.27
61488;BME280;47351;53.326;-6.298;2023-02-15T12:07:40;101505.71;;;10.54;69.97
61488;BME280;47351;53.326;-6.298;2023-02-15T12:10:32;101511.41;;;10.58;69.48
61488;BME280;47351;53.326;-6.298;2023-02-15T12:13:23;101506.77;;;10.60;69.31
61488;BME280;47351;53.326;-6.298;2023-02-15T12:16:11;101504.16;;;10.65;69.13
61488;BME280;47351;53.326;-6.298;2023-02-15T12:19:13;101505.23;;;10.79;68.83
61488;BME280;47351;53.326;-6.298;2023-02-15T12:22:10;101508.53;;;11.01;68.20
61488;BME280;47351;53.326;-6.298;2023-02-15T12:25:20;101496.81;;;11.16;67.78
61488;BME280;47351;53.326;-6.298;2023-02-15T12:28:21;101493.08;;;11.31;67.32
61488;BME280;47351;53.326;-6.298;2023-02-15T12:31:18;101496.33;;;11.63;66.84
61488;BME280;47351;53.326;-6.298;2023-02-15T12:34:10;101500.11;;;11.79;65.61
61488;BME280;47351;53.326;-6.298;2023-02-15T12:37:01;101504.95;;;11.70;65.29
61488;BME280;47351;53.326;-6.298;2023-02-15T12:40:20;101499.33;;;11.48;64.51
61488;BME280;47351;53.326;-6.298;2023-02-15T12:43:16;101499.14;;;11.31;64.62
61488;BME280;47351;53.326;-6.298;2023-02-15T12:46:20;101499.42;;;11.23;64.82
61488;BME280;47351;53.326;-6.298;2023-02-15T12:49:17;101499.91;;;11.19;64.36
61488;BME280;47351;53.326;-6.298;2023-02-15T12:52:28;101498.38;;;11.19;64.25
61488;BME280;47351;53.326;-6.298;2023-02-15T12:55:21;101492.79;;;11.13;64.37
61488;BME280;47351;53.326;-6.298;2023-02-15T12:58:15;101494.67;;;11.06;64.48
61488;BME280;47351;53.326;-6.298;2023-02-15T13:01:11;101490.86;;;10.97;64.15
61488;BME280;47351;53.326;-6.298;2023-02-15T13:04:01;101489.10;;;10.91;64.29
61488;BME280;47351;53.326;-6.298;2023-02-15T13:07:00;101496.15;;;10.86;64.29
61488;BME280;47351;53.326;-6.298;2023-02-15T13:09:52;101491.69;;;10.81;64.07
61488;BME280;47351;53.326;-6.298;2023-02-15T13:12:41;101485.55;;;10.83;64.20
61488;BME280;47351;53.326;-6.298;2023-02-15T13:15:38;101480.92;;;10.99;63.55
61488;BME280;47351;53.326;-6.298;2023-02-15T13:18:30;101480.86;;;11.26;62.55
61488;BME280;47351;53.326;-6.298;2023-02-15T13:21:21;101476.17;;;11.32;62.35
61488;BME280;47351;53.326;-6.298;2023-02-15T13:24:13;101477.86;;;11.35;62.57
61488;BME280;47351;53.326;-6.298;2023-02-15T13:27:08;101476.73;;;11.38;62.28
61488;BME280;47351;53.326;-6.298;2023-02-15T13:30:03;101473.77;;;11.45;62.09
61488;BME280;47351;53.326;-6.298;2023-02-15T13:32:57;101477.15;;;11.56;62.34
61488;BME280;47351;53.326;-6.298;2023-02-15T13:35:59;101470.95;;;11.68;61.90
61488;BME280;47351;53.326;-6.298;2023-02-15T13:38:59;101469.02;;;11.87;61.44
61488;BME280;47351;53.326;-6.298;2023-02-15T13:42:01;101465.61;;;11.98;60.89
61488;BME280;47351;53.326;-6.298;2023-02-15T13:44:57;101459.50;;;12.15;60.95
61488;BME280;47351;53.326;-6.298;2023-02-15T13:47:50;101457.21;;;12.24;60.38
61488;BME280;47351;53.326;-6.298;2023-02-15T13:51:03;101458.91;;;12.19;59.84
61488;BME280;47351;53.326;-6.298;2023-02-15T13:54:05;101453.21;;;12.32;59.04
61488;BME280;47351;53.326;-6.298;2023-02-15T13:57:00;101452.20;;;12.51;58.72
61488;BME280;47351;53.326;-6.298;2023-02-15T13:59:55;101449.02;;;12.49;58.67
61488;BME280;47351;53.326;-6.298;2023-02-15T14:02:54;101447.10;;;12.28;58.87
61488;BME280;47351;53.326;-6.298;2023-02-15T14:05:51;101449.86;;;12.11;59.41
61488;BME280;47351;53.326;-6.298;2023-02-15T14:08:57;101442.29;;;12.00;59.67
61488;BME280;47351;53.326;-6.298;2023-02-15T14:11:50;101442.21;;;11.99;59.96
61488;BME280;47351;53.326;-6.298;2023-02-15T14:14:51;101443.17;;;11.99;59.84
61488;BME280;47351;53.326;-6.298;2023-02-15T14:17:52;101447.11;;;11.90;59.38
61488;BME280;47351;53.326;-6.298;2023-02-15T14:20:47;101441.19;;;11.77;59.70
61488;BME280;47351;53.326;-6.298;2023-02-15T14:23:42;101436.58;;;11.65;59.14
61488;BME280;47351;53.326;-6.298;2023-02-15T14:26:33;101441.05;;;11.56;58.67
61488;BME280;47351;53.326;-6.298;2023-02-15T14:29:27;101442.17;;;11.48;58.89
61488;BME280;47351;53.326;-6.298;2023-02-15T14:32:20;101438.16;;;11.41;59.55
61488;BME280;47351;53.326;-6.298;2023-02-15T14:35:21;101442.16;;;11.39;60.15
61488;BME280;47351;53.326;-6.298;2023-02-15T14:38:14;101444.70;;;11.38;60.12
61488;BME280;47351;53.326;-6.298;2023-02-15T14:41:07;101451.19;;;11.36;59.87
61488;BME280;47351;53.326;-6.298;2023-02-15T14:44:01;101447.70;;;11.33;59.85
61488;BME280;47351;53.326;-6.298;2023-02-15T14:47:09;101446.10;;;11.29;59.76
61488;BME280;47351;53.326;-6.298;2023-02-15T14:49:59;101441.48;;;11.30;59.79
61488;BME280;47351;53.326;-6.298;2023-02-15T14:53:32;101446.83;;;11.40;60.03
61488;BME280;47351;53.326;-6.298;2023-02-15T14:56:21;101452.16;;;11.42;59.79
61488;BME280;47351;53.326;-6.298;2023-02-15T14:59:14;101447.17;;;11.38;59.81
61488;BME280;47351;53.326;-6.298;2023-02-15T15:02:09;101446.55;;;11.33;59.92
61488;BME280;47351;53.326;-6.298;2023-02-15T15:05:02;101444.27;;;11.26;59.88
61488;BME280;47351;53.326;-6.298;2023-02-15T15:08:21;101441.30;;;11.20;60.08
61488;BME280;47351;53.326;-6.298;2023-02-15T15:14:41;101437.38;;;11.02;59.18
61488;BME280;47351;53.326;-6.298;2023-02-15T15:20:48;101431.23;;;10.84;59.28
61488;BME280;47351;53.326;-6.298;2023-02-15T15:23:43;101427.37;;;10.77;59.49
61488;BME280;47351;53.326;-6.298;2023-02-15T15:26:39;101419.10;;;10.72;59.70
61488;BME280;47351;53.326;-6.298;2023-02-15T15:33:50;101417.22;;;10.63;60.19
61488;BME280;47351;53.326;-6.298;2023-02-15T15:46:35;101409.14;;;10.44;61.24
61488;BME280;47351;53.326;-6.298;2023-02-15T15:49:29;101411.54;;;10.36;61.58
61488;BME280;47351;53.326;-6.298;2023-02-15T15:52:20;101412.68;;;10.31;61.84
61488;BME280;47351;53.326;-6.298;2023-02-15T15:55:14;101408.96;;;10.31;62.13
61488;BME280;47351;53.326;-6.298;2023-02-15T15:58:03;101406.71;;;10.32;62.14
61488;BME280;47351;53.326;-6.298;2023-02-15T16:00:54;101403.90;;;10.31;62.03
61488;BME280;47351;53.326;-6.298;2023-02-15T16:03:51;101405.37;;;10.35;62.07
61488;BME280;47351;53.326;-6.298;2023-02-15T16:06:40;101397.31;;;10.41;62.01